Tahitian Princess — ZCDD8 — position and weather

sailwx.info

Track history (hours):
 
Tides and Currents Weather Stations Pressure Air Temp Water Temp Dewpoint Dewpoint Depression Visibility Wind Speed Wind Dir Waves Ship Positions

Tahitian Princess

Operator: P & O Irish Sea Ltd

Last reported at 2019-Aug-24 08:00 UTC. Time now 2019-Aug-24 08:14 UTC.
Position N 53°21' W 006°13'.

Length 167 m; draft 5.8 m.

Type: Passenger vessel. MMSI: 310362000.

Date/timePositionNaut miles runAvg speedWind from/ knotsBaromVisibWave heightAir tempDewpointWater temp
2019-Aug-24 08:00N 53°21' W 006°13'0 0.3
2019-Aug-24 07:30N 53°21' W 006°13'0 0.0
2019-Aug-24 07:00N 53°21' W 006°13'0 0.0
2019-Aug-24 06:30N 53°21' W 006°13'0 0.0
2019-Aug-24 06:00N 53°21' W 006°13'0 0.0
2019-Aug-24 05:30N 53°21' W 006°13'0 0.0
2019-Aug-24 05:00N 53°21' W 006°13'0 0.0
2019-Aug-24 04:30N 53°21' W 006°13'0 0.3
2019-Aug-24 04:00N 53°21' W 006°13'5 9.2
2019-Aug-24 03:30N 53°20' W 006°05'816.5
2019-Aug-24 03:00N 53°23' W 005°52'815.4
2019-Aug-24 02:30N 53°26' W 005°40'815.2
2019-Aug-24 01:59N 53°28' W 005°27'1217.9
2019-Aug-24 01:20N 53°31' W 005°08'617.8
2019-Aug-24 01:00N 53°32' W 004°59'1117.3
2019-Aug-24 00:22N 53°34' W 004°41'617.5
2019-Aug-24 00:00N 53°35' W 004°30'917.9
2019-Aug-23 23:30N 53°34' W 004°15'918.4
2019-Aug-23 23:00N 53°34' W 003°59'918.9
2019-Aug-23 22:30N 53°34' W 003°43'1019.2
2019-Aug-23 22:00N 53°33' W 003°27'918.4
2019-Aug-23 21:30N 53°31' W 003°12'815.9
2019-Aug-23 21:00N 53°27' W 003°01'0 0.4
2019-Aug-23 20:30N 53°27' W 003°01'0 0.9
2019-Aug-23 20:00N 53°27' W 003°01'0 0.0
2019-Aug-23 19:30N 53°27' W 003°01'0 0.0
2019-Aug-23 19:00N 53°27' W 003°01'0 0.0
2019-Aug-23 18:30N 53°27' W 003°01'0 0.0
2019-Aug-23 18:00N 53°27' W 003°01'0 0.0
2019-Aug-23 17:30N 53°27' W 003°01'0 0.0
2019-Aug-23 17:00N 53°27' W 003°01'0 0.0
2019-Aug-23 16:30N 53°27' W 003°01'0 0.0
2019-Aug-23 16:00N 53°27' W 003°01'0 0.1
2019-Aug-23 15:30N 53°27' W 003°01'0 0.7
2019-Aug-23 15:00N 53°27' W 003°01'4 7.5
2019-Aug-23 14:30N 53°30' W 003°06'816.7
2019-Aug-23 14:00N 53°31' W 003°19'1019.4
2019-Aug-23 13:30N 53°31' W 003°36'1019.2
2019-Aug-23 13:00N 53°32' W 003°52'1019.5
2019-Aug-23 12:30N 53°34' W 004°08'1020.3
2019-Aug-23 12:00N 53°37' W 004°25'5519.4
2019-Aug-23 09:09N 53°22' W 005°54'318.9
2019-Aug-23 09:00N 53°21' W 005°59'714.6
2019-Aug-23 08:30N 53°21' W 006°11'1 2.7
2019-Aug-23 08:00N 53°21' W 006°13'0 0.0
2019-Aug-23 07:30N 53°21' W 006°13'0 0.0
2019-Aug-23 07:00N 53°21' W 006°13'0 0.0
2019-Aug-23 06:30N 53°21' W 006°13'0 0.0
2019-Aug-23 06:00N 53°21' W 006°13'0 0.0
2019-Aug-23 05:30N 53°21' W 006°13'0 0.0
2019-Aug-23 05:00N 53°21' W 006°13'0 0.0
2019-Aug-23 04:30N 53°21' W 006°13'1 2.0
2019-Aug-23 04:00N 53°21' W 006°11'713.6
2019-Aug-23 03:30N 53°21' W 006°00'3919.8
2019-Aug-23 01:33N 53°33' W 004°58'118.7
2019-Aug-23 01:30N 53°33' W 004°57'1018.2
2019-Aug-23 00:57N 53°34' W 004°40'818.0
2019-Aug-23 00:30N 53°34' W 004°26'918.5
2019-Aug-23 00:00N 53°34' W 004°11'1018.9
2019-Aug-22 23:30N 53°34' W 003°54'1019.6
2019-Aug-22 23:00N 53°33' W 003°38'1019.9
2019-Aug-22 22:30N 53°32' W 003°22'816.7
2019-Aug-22 22:00N 53°32' W 003°08'612.2
2019-Aug-22 21:30N 53°27' W 003°01'0 0.1
2019-Aug-22 21:00N 53°27' W 003°01'0 0.8
2019-Aug-22 20:30N 53°27' W 003°01'0 0.0
2019-Aug-22 20:00N 53°27' W 003°01'0 0.0
2019-Aug-22 19:30N 53°27' W 003°01'0 0.0
2019-Aug-22 19:00N 53°27' W 003°01'0 0.0
2019-Aug-22 18:30N 53°27' W 003°01'0 0.0
2019-Aug-22 18:00N 53°27' W 003°01'0 0.0
2019-Aug-22 17:30N 53°27' W 003°01'0 0.0
2019-Aug-22 17:00N 53°27' W 003°01'0 0.0
2019-Aug-22 16:30N 53°27' W 003°01'0 0.0
2019-Aug-22 16:00N 53°27' W 003°01'0 0.4
2019-Aug-22 15:31N 53°27' W 003°01'0 0.9
2019-Aug-22 15:00N 53°27' W 003°01'612.6
2019-Aug-22 14:30N 53°32' W 003°08'918.9
2019-Aug-22 14:01N 53°31' W 003°24'917.5
2019-Aug-22 13:31N 53°31' W 003°39'917.6
2019-Aug-22 13:00N 53°32' W 003°53'918.2
2019-Aug-22 12:29N 53°34' W 004°09'918.5
2019-Aug-22 11:59N 53°36' W 004°24'918.4
2019-Aug-22 11:29N 53°36' W 004°40'4917.1
2019-Aug-22 08:36N 53°21' W 005°59'217.9
2019-Aug-22 08:31N 53°21' W 006°01'712.9
2019-Aug-22 08:00N 53°21' W 006°12'1 1.0
2019-Aug-22 07:30N 53°21' W 006°13'0 0.0
2019-Aug-22 07:00N 53°21' W 006°13'0 0.0
2019-Aug-22 06:30N 53°21' W 006°13'0 0.0
2019-Aug-22 06:00N 53°21' W 006°13'0 0.0
2019-Aug-22 05:30N 53°21' W 006°13'0 0.0
2019-Aug-22 05:00N 53°21' W 006°13'0 0.0
2019-Aug-22 04:30N 53°21' W 006°13'0 0.3
2019-Aug-22 04:00N 53°21' W 006°13'4 8.7
2019-Aug-22 03:30N 53°20' W 006°06'4117.6
2019-Aug-22 01:10N 53°32' W 004°59'318.7
2019-Aug-22 01:00N 53°33' W 004°54'918.0
2019-Aug-22 00:30N 53°34' W 004°39'917.3
2019-Aug-22 00:00N 53°34' W 004°25'917.7
2019-Aug-21 23:30N 53°34' W 004°10'918.3
2019-Aug-21 23:00N 53°34' W 003°54'919.1
2019-Aug-21 22:30N 53°33' W 003°39'1019.6
2019-Aug-21 22:00N 53°33' W 003°22'917.3
2019-Aug-21 21:30N 53°32' W 003°08'611.9
2019-Aug-21 21:00N 53°27' W 003°01'0 0.0
2019-Aug-21 20:30N 53°27' W 003°01'0 0.7
2019-Aug-21 19:58N 53°27' W 003°01'0 0.0
2019-Aug-21 19:28N 53°27' W 003°01'0 0.0
2019-Aug-21 18:55N 53°27' W 003°01'0 0.0
2019-Aug-21 18:28N 53°27' W 003°01'0 0.0
2019-Aug-21 17:58N 53°27' W 003°01'0 0.0
2019-Aug-21 17:28N 53°27' W 003°01'0 0.0
2019-Aug-21 16:58N 53°27' W 003°01'0 0.0
2019-Aug-21 16:28N 53°27' W 003°01'0 0.0
2019-Aug-21 15:58N 53°27' W 003°01'0 0.5
2019-Aug-21 15:30N 53°27' W 003°01'0 0.7
2019-Aug-21 15:00N 53°27' W 003°01'4 8.4
2019-Aug-21 14:30N 53°30' W 003°06'917.0
2019-Aug-21 14:01N 53°32' W 003°20'815.9
2019-Aug-21 13:30N 53°31' W 003°33'1019.1
2019-Aug-21 13:00N 53°31' W 003°49'917.9
2019-Aug-21 12:30N 53°32' W 004°04'1119.6
2019-Aug-21 11:55N 53°36' W 004°22'920.8
2019-Aug-21 11:28N 53°37' W 004°38'5019.8
2019-Aug-21 08:57N 53°22' W 005°58'715.7
2019-Aug-21 08:30N 53°21' W 006°10'2 4.1
2019-Aug-21 08:00N 53°21' W 006°13'0 0.0
2019-Aug-21 07:30N 53°21' W 006°13'0 0.0
2019-Aug-21 07:00N 53°21' W 006°13'0 0.0
2019-Aug-21 06:29N 53°21' W 006°13'0 0.0
2019-Aug-21 05:59N 53°21' W 006°13'0 0.0
2019-Aug-21 05:30N 53°21' W 006°13'0 0.0
2019-Aug-21 05:00N 53°21' W 006°13'0 0.7
2019-Aug-21 04:30N 53°21' W 006°13'2 3.7
2019-Aug-21 04:00N 53°21' W 006°09'4617.9
2019-Aug-21 01:26N 53°33' W 004°55'817.6
2019-Aug-21 00:59N 53°34' W 004°42'816.8
2019-Aug-21 00:31N 53°34' W 004°28'816.4
2019-Aug-21 00:00N 53°34' W 004°14'816.6
2019-Aug-20 23:30N 53°34' W 004°01'916.7
2019-Aug-20 22:59N 53°33' W 003°46'816.9
2019-Aug-20 22:30N 53°33' W 003°32'817.0
2019-Aug-20 22:00N 53°32' W 003°18'714.1
2019-Aug-20 21:30N 53°31' W 003°06'510.2
2019-Aug-20 21:01N 53°27' W 003°01'0 0.1
2019-Aug-20 20:31N 53°27' W 003°01'0 0.8
2019-Aug-20 20:01N 53°27' W 003°01'0 0.0
2019-Aug-20 19:30N 53°27' W 003°01'0 0.0
2019-Aug-20 19:00N 53°27' W 003°01'0 0.0
2019-Aug-20 18:30N 53°27' W 003°01'0 0.0
2019-Aug-20 18:00N 53°27' W 003°01'0 0.0
2019-Aug-20 17:30N 53°27' W 003°01'0 0.0
2019-Aug-20 17:00N 53°27' W 003°01'0 0.0
2019-Aug-20 16:30N 53°27' W 003°01'0 0.0
2019-Aug-20 16:00N 53°27' W 003°01'0 0.4
2019-Aug-20 15:30N 53°27' W 003°01'0 0.8
2019-Aug-20 15:00N 53°27' W 003°01'510.1
2019-Aug-20 14:31N 53°31' W 003°07'917.7
2019-Aug-20 14:01N 53°31' W 003°21'918.1
2019-Aug-20 13:31N 53°31' W 003°37'917.3
2019-Aug-20 13:01N 53°32' W 003°51'917.8
2019-Aug-20 12:30N 53°33' W 004°06'918.4
2019-Aug-20 11:59N 53°35' W 004°22'5519.0
2019-Aug-20 09:06N 53°23' W 005°52'219.5
2019-Aug-20 09:00N 53°22' W 005°55'816.9
2019-Aug-20 08:30N 53°21' W 006°09'3 5.0
2019-Aug-20 08:00N 53°21' W 006°13'0 0.0
2019-Aug-20 07:30N 53°21' W 006°13'0 0.0
2019-Aug-20 07:00N 53°21' W 006°13'0 0.0
2019-Aug-20 06:30N 53°21' W 006°13'0 0.0
2019-Aug-20 06:00N 53°21' W 006°13'0 0.0
2019-Aug-20 05:30N 53°21' W 006°13'0 0.0
2019-Aug-20 05:00N 53°21' W 006°13'0 0.0
2019-Aug-20 04:30N 53°21' W 006°13'0 0.2
2019-Aug-20 04:00N 53°21' W 006°13'4 8.0
2019-Aug-20 03:30N 53°20' W 006°06'917.8
2019-Aug-20 03:00N 53°23' W 005°52'3918.8
2019-Aug-20 00:57N 53°33' W 004°49'919.2
2019-Aug-20 00:30N 53°34' W 004°35'918.7
2019-Aug-20 00:00N 53°34' W 004°19'918.7
2019-Aug-19 23:30N 53°34' W 004°03'1018.4
2019-Aug-19 22:57N 53°33' W 003°46'818.5
2019-Aug-19 22:31N 53°33' W 003°33'918.2
2019-Aug-19 22:01N 53°32' W 003°17'714.7
2019-Aug-19 21:30N 53°30' W 003°06'4 7.8
2019-Aug-19 21:00N 53°27' W 003°01'0 0.1
2019-Aug-19 20:30N 53°27' W 003°01'0 0.8
2019-Aug-19 20:01N 53°27' W 003°01'0 0.0
2019-Aug-19 19:31N 53°27' W 003°01'0 0.0
2019-Aug-19 19:01N 53°27' W 003°01'0 0.0
2019-Aug-19 18:31N 53°27' W 003°01'0 0.0
2019-Aug-19 18:00N 53°27' W 003°01'0 0.0
2019-Aug-19 17:30N 53°27' W 003°01'0 0.0
2019-Aug-19 17:01N 53°27' W 003°01'0 0.0
2019-Aug-19 16:30N 53°27' W 003°01'0 0.0
2019-Aug-19 16:00N 53°27' W 003°01'0 0.0
2019-Aug-19 15:30N 53°27' W 003°01'0 0.0
2019-Aug-19 15:00N 53°27' W 003°01'0 0.0
2019-Aug-19 14:30N 53°27' W 003°01'0 0.0
2019-Aug-19 14:00N 53°27' W 003°01'0 0.0
2019-Aug-19 13:30N 53°27' W 003°01'0 0.0
2019-Aug-19 13:01N 53°27' W 003°01'0 0.0
2019-Aug-19 12:30N 53°27' W 003°01'0 0.0
2019-Aug-19 12:01N 53°27' W 003°01'0 0.0
2019-Aug-19 11:30N 53°27' W 003°01'0 0.0
2019-Aug-19 11:01N 53°27' W 003°01'0 0.0
2019-Aug-19 10:30N 53°27' W 003°01'0 0.0
2019-Aug-19 10:01N 53°27' W 003°01'0 0.0
2019-Aug-19 09:30N 53°27' W 003°01'0 0.0
2019-Aug-19 09:01N 53°27' W 003°01'0 0.0
2019-Aug-19 08:30N 53°27' W 003°01'0 0.0
2019-Aug-19 08:00N 53°27' W 003°01'0 0.0
2019-Aug-19 07:30N 53°27' W 003°01'0 0.0
2019-Aug-19 07:01N 53°27' W 003°01'0 0.0
2019-Aug-19 06:31N 53°27' W 003°01'0 0.0
2019-Aug-19 06:00N 53°27' W 003°01'0 0.0
2019-Aug-19 05:30N 53°27' W 003°01'0 0.0
2019-Aug-19 05:00N 53°27' W 003°01'0 0.8
2019-Aug-19 04:31N 53°27' W 003°01'0 0.4
2019-Aug-19 04:01N 53°27' W 003°01'510.6
2019-Aug-19 03:30N 53°31' W 003°07'816.6
2019-Aug-19 03:00N 53°31' W 003°21'714.6
2019-Aug-19 02:30N 53°30' W 003°33'815.1
2019-Aug-19 02:00N 53°31' W 003°46'815.8
2019-Aug-19 01:30N 53°33' W 003°59'815.8
2019-Aug-19 01:00N 53°34' W 004°12'815.9
2019-Aug-19 00:30N 53°36' W 004°25'5415.8
2019-Aug-18 21:06N 53°23' W 005°53'217.3
2019-Aug-18 20:59N 53°22' W 005°56'715.6
2019-Aug-18 20:30N 53°21' W 006°08'3 5.7
2019-Aug-18 20:00N 53°21' W 006°13'0 0.0
2019-Aug-18 19:30N 53°21' W 006°13'0 0.0
2019-Aug-18 19:00N 53°21' W 006°13'0 0.0
2019-Aug-18 18:30N 53°21' W 006°13'0 0.0
2019-Aug-18 18:00N 53°21' W 006°13'0 0.0
2019-Aug-18 17:30N 53°21' W 006°13'0 0.3
2019-Aug-18 17:00N 53°21' W 006°13'0 0.0
2019-Aug-18 16:30N 53°21' W 006°13'0 0.0
2019-Aug-18 16:00N 53°21' W 006°13'0 0.0
2019-Aug-18 15:31N 53°21' W 006°13'0 0.0
2019-Aug-18 15:00N 53°21' W 006°13'0 0.0
2019-Aug-18 14:30N 53°21' W 006°13'0 0.0
2019-Aug-18 14:00N 53°21' W 006°13'0 0.0
2019-Aug-18 13:30N 53°21' W 006°13'0 0.0
2019-Aug-18 13:00N 53°21' W 006°13'0 0.0
2019-Aug-18 12:30N 53°21' W 006°13'0 0.0
2019-Aug-18 12:00N 53°21' W 006°13'0 0.0
2019-Aug-18 11:30N 53°21' W 006°13'0 0.0
2019-Aug-18 11:00N 53°21' W 006°13'0 0.0
2019-Aug-18 10:30N 53°21' W 006°13'0 0.0
2019-Aug-18 10:00N 53°21' W 006°13'0 0.0
2019-Aug-18 09:30N 53°21' W 006°13'0 0.0
2019-Aug-18 09:00N 53°21' W 006°13'0 0.3
2019-Aug-18 08:30N 53°21' W 006°13'0 0.1
2019-Aug-18 08:00N 53°21' W 006°13'0 0.0
2019-Aug-18 07:00N 53°21' W 006°13'0 0.0
2019-Aug-18 06:30N 53°21' W 006°13'0 0.0
2019-Aug-18 06:00N 53°21' W 006°13'0 0.0
2019-Aug-18 05:30N 53°21' W 006°13'0 0.0
2019-Aug-18 05:00N 53°21' W 006°13'1 1.3
2019-Aug-18 04:30N 53°21' W 006°12'613.0
2019-Aug-18 04:00N 53°21' W 006°01'918.3
2019-Aug-18 03:30N 53°24' W 005°47'2616.2
2019-Aug-18 01:53N 53°31' W 005°04'916.0
2019-Aug-18 01:19N 53°34' W 004°50'616.4
2019-Aug-18 00:59N 53°34' W 004°40'918.2
2019-Aug-18 00:30N 53°34' W 004°26'917.9
2019-Aug-18 00:01N 53°34' W 004°11'1017.5
2019-Aug-17 23:27N 53°34' W 003°54'817.1
2019-Aug-17 23:00N 53°34' W 003°42'817.1
2019-Aug-17 22:31N 53°33' W 003°27'816.9
2019-Aug-17 22:00N 53°31' W 003°13'714.4
2019-Aug-17 21:30N 53°28' W 003°03'1 2.6
2019-Aug-17 21:01N 53°27' W 003°01'0 0.9
2019-Aug-17 20:31N 53°27' W 003°01'0 0.0
2019-Aug-17 20:01N 53°27' W 003°01'0 0.0
2019-Aug-17 19:31N 53°27' W 003°01'0 0.0
2019-Aug-17 19:01N 53°27' W 003°01'0 0.0
2019-Aug-17 18:30N 53°27' W 003°01'0 0.0
2019-Aug-17 17:31N 53°27' W 003°01'0 0.0
2019-Aug-17 17:00N 53°27' W 003°01'0 0.0
2019-Aug-17 16:31N 53°27' W 003°01'0 0.0
2019-Aug-17 16:00N 53°27' W 003°01'0 0.8
2019-Aug-17 15:31N 53°27' W 003°01'0 0.3
2019-Aug-17 15:01N 53°27' W 003°01'4 7.8
2019-Aug-17 14:30N 53°30' W 003°06'815.1
2019-Aug-17 14:00N 53°31' W 003°18'816.8
2019-Aug-17 13:30N 53°31' W 003°32'815.6
2019-Aug-17 13:00N 53°32' W 003°45'816.2
2019-Aug-17 12:30N 53°33' W 003°59'816.6
2019-Aug-17 12:00N 53°35' W 004°12'1418.8
2019-Aug-17 11:15N 53°36' W 004°37'4719.5
2019-Aug-17 08:51N 53°23' W 005°52'719.7
2019-Aug-17 08:30N 53°20' W 006°03'611.8
2019-Aug-17 08:00N 53°21' W 006°12'0 0.8
2019-Aug-17 07:30N 53°21' W 006°13'0 0.0
2019-Aug-17 07:00N 53°21' W 006°13'0 0.0
2019-Aug-17 06:30N 53°21' W 006°13'0 0.0
2019-Aug-17 06:00N 53°21' W 006°13'0 0.0
2019-Aug-17 05:30N 53°21' W 006°13'0 0.0
2019-Aug-17 05:00N 53°21' W 006°13'0 0.0
2019-Aug-17 04:30N 53°21' W 006°13'0 0.5
2019-Aug-17 04:00N 53°21' W 006°13'510.0
2019-Aug-17 03:30N 53°20' W 006°04'918.3
2019-Aug-17 03:01N 53°23' W 005°50'3118.2
2019-Aug-17 01:18N 53°32' W 004°60'618.6
2019-Aug-17 00:59N 53°33' W 004°50'918.9
2019-Aug-17 00:30N 53°34' W 004°35'1020.4
2019-Aug-17 00:01N 53°34' W 004°18'1020.0
2019-Aug-16 23:30N 53°34' W 004°01'1019.6
2019-Aug-16 23:01N 53°34' W 003°45'918.1
2019-Aug-16 22:30N 53°33' W 003°30'917.4
2019-Aug-16 22:01N 53°31' W 003°15'714.6
2019-Aug-16 21:31N 53°28' W 003°04'2 4.3
2019-Aug-16 21:00N 53°27' W 003°01'0 0.7
2019-Aug-16 20:31N 53°27' W 003°01'0 0.2
2019-Aug-16 20:01N 53°27' W 003°01'0 0.0
2019-Aug-16 19:30N 53°27' W 003°01'0 0.0
2019-Aug-16 19:00N 53°27' W 003°01'0 0.0
2019-Aug-16 18:30N 53°27' W 003°01'0 0.0
2019-Aug-16 18:00N 53°27' W 003°01'0 0.0
2019-Aug-16 17:31N 53°27' W 003°01'0 0.0
2019-Aug-16 17:00N 53°27' W 003°01'0 0.0
2019-Aug-16 16:31N 53°27' W 003°01'0 0.4
2019-Aug-16 16:01N 53°27' W 003°01'0 0.6
2019-Aug-16 15:30N 53°27' W 003°01'2 4.7
2019-Aug-16 15:00N 53°29' W 003°04'713.8
2019-Aug-16 14:30N 53°31' W 003°15'713.1
2019-Aug-16 14:00N 53°31' W 003°26'816.2
2019-Aug-16 13:30N 53°31' W 003°39'1019.6
2019-Aug-16 13:00N 53°33' W 003°56'1019.8
2019-Aug-16 12:30N 53°34' W 004°12'1020.1
2019-Aug-16 12:00N 53°36' W 004°29'4919.6
2019-Aug-16 09:29N 53°24' W 005°49'919.5
2019-Aug-16 09:00N 53°20' W 006°04'611.1
2019-Aug-16 08:30N 53°21' W 006°13'0 0.2
2019-Aug-16 08:00N 53°21' W 006°13'0 0.0
2019-Aug-16 07:30N 53°21' W 006°13'0 0.0
2019-Aug-16 07:00N 53°21' W 006°13'0 0.0
2019-Aug-16 06:30N 53°21' W 006°13'0 0.0
2019-Aug-16 06:00N 53°21' W 006°13'0 0.0
2019-Aug-16 05:30N 53°21' W 006°13'0 0.0
2019-Aug-16 05:00N 53°21' W 006°13'0 0.0
2019-Aug-16 04:30N 53°21' W 006°13'0 1.0
2019-Aug-16 04:00N 53°21' W 006°12'612.2
2019-Aug-16 03:30N 53°21' W 006°02'1020.3
2019-Aug-16 03:00N 53°24' W 005°46'4221.0
2019-Aug-16 01:02N 53°34' W 004°38'021.6
2019-Aug-16 01:00N 53°34' W 004°37'1121.7
2019-Aug-16 00:30N 53°35' W 004°19'1221.2
2019-Aug-15 23:57N 53°34' W 003°60'920.6
2019-Aug-15 23:30N 53°34' W 003°44'1020.4
2019-Aug-15 23:00N 53°33' W 003°27'918.3
2019-Aug-15 22:30N 53°31' W 003°12'4 8.6
2019-Aug-15 22:00N 53°30' W 003°05'3 5.4
2019-Aug-15 21:30N 53°27' W 003°02'1 1.7
2019-Aug-15 21:01N 53°27' W 003°01'0 0.9
2019-Aug-15 20:31N 53°27' W 003°01'0 0.0
2019-Aug-15 20:00N 53°27' W 003°01'0 0.0
2019-Aug-15 19:31N 53°27' W 003°01'0 0.0
2019-Aug-15 18:59N 53°27' W 003°01'0 0.0
2019-Aug-15 18:29N 53°27' W 003°01'0 0.0
2019-Aug-15 17:59N 53°27' W 003°01'0 0.0
2019-Aug-15 17:29N 53°27' W 003°01'0 0.0
2019-Aug-15 16:59N 53°27' W 003°01'0 0.0
2019-Aug-15 16:29N 53°27' W 003°01'0 0.0
2019-Aug-15 16:00N 53°27' W 003°01'0 0.8
2019-Aug-15 15:30N 53°27' W 003°01'0 0.3
2019-Aug-15 15:00N 53°27' W 003°01'5 9.2
2019-Aug-15 14:30N 53°30' W 003°06'714.3
2019-Aug-15 14:00N 53°31' W 003°18'917.5
2019-Aug-15 13:30N 53°31' W 003°33'917.4
2019-Aug-15 13:00N 53°32' W 003°47'917.9
2019-Aug-15 12:30N 53°33' W 004°02'6718.6
2019-Aug-15 08:53N 53°23' W 005°54'719.2
2019-Aug-15 08:30N 53°20' W 006°05'5 9.6
2019-Aug-15 08:00N 53°21' W 006°13'0 0.0
2019-Aug-15 07:29N 53°21' W 006°13'0 0.0
2019-Aug-15 06:59N 53°21' W 006°13'0 0.0
2019-Aug-15 06:29N 53°21' W 006°13'0 0.0
2019-Aug-15 05:47N 53°21' W 006°13'0 0.0
2019-Aug-15 05:17N 53°21' W 006°13'0 0.0
2019-Aug-15 04:53N 53°21' W 006°13'0 0.0
2019-Aug-15 04:23N 53°21' W 006°13'0 0.3
2019-Aug-15 03:59N 53°21' W 006°13'4 8.6
2019-Aug-15 03:30N 53°20' W 006°06'917.7
2019-Aug-15 03:00N 53°23' W 005°52'4317.4
2019-Aug-15 00:33N 53°34' W 004°42'120.0
2019-Aug-15 00:31N 53°34' W 004°41'1019.8
2019-Aug-15 00:00N 53°35' W 004°24'919.4
2019-Aug-14 23:30N 53°34' W 004°08'918.7
2019-Aug-14 23:00N 53°34' W 003°52'918.3
2019-Aug-14 22:30N 53°33' W 003°37'918.0
2019-Aug-14 22:00N 53°33' W 003°22'917.3
2019-Aug-14 21:31N 53°32' W 003°08'612.1
2019-Aug-14 21:00N 53°27' W 003°01'0 0.5
2019-Aug-14 20:30N 53°27' W 003°01'0 0.5
2019-Aug-14 20:00N 53°27' W 003°01'0 0.0
2019-Aug-14 19:30N 53°27' W 003°01'0 0.0
2019-Aug-14 19:00N 53°27' W 003°01'0 0.0
2019-Aug-14 18:30N 53°27' W 003°01'0 0.0
2019-Aug-14 18:00N 53°27' W 003°01'0 0.0
2019-Aug-14 17:30N 53°27' W 003°01'0 0.0
2019-Aug-14 17:00N 53°27' W 003°01'0 0.0
2019-Aug-14 16:30N 53°27' W 003°01'0 0.0
2019-Aug-14 16:00N 53°27' W 003°01'0 0.8
2019-Aug-14 15:30N 53°27' W 003°01'0 0.4
2019-Aug-14 15:00N 53°27' W 003°01'611.7
2019-Aug-14 14:30N 53°31' W 003°07'816.7
2019-Aug-14 14:00N 53°31' W 003°21'714.1
2019-Aug-14 13:31N 53°31' W 003°33'1019.4
2019-Aug-14 13:00N 53°32' W 003°50'1019.3
2019-Aug-14 12:31N 53°33' W 004°06'1017.6
2019-Aug-14 11:56N 53°35' W 004°22'817.5
2019-Aug-14 11:30N 53°36' W 004°35'4618.6
2019-Aug-14 09:02N 53°23' W 005°49'119.0
2019-Aug-14 08:59N 53°23' W 005°51'918.8
2019-Aug-14 08:30N 53°20' W 006°05'  
Track history (hours):
 
Tides and Currents Weather Stations Pressure Air Temp Water Temp Dewpoint Dewpoint Depression Visibility Wind Speed Wind Dir Waves Ship Positions

Tahitian Princess

Operator: P & O Irish Sea Ltd

Last reported at 2019-Aug-24 08:00 UTC. Time now 2019-Aug-24 08:14 UTC.
Position N 53°21' W 006°13'.

Length 167 m; draft 5.8 m.

Type: Passenger vessel. MMSI: 310362000.

Date/timePositionNaut miles runAvg speedWind from/ knotsBaromVisibWave heightAir tempDewpointWater temp
2019-Aug-24 08:00N 53°21' W 006°13'0 0.3
2019-Aug-24 07:30N 53°21' W 006°13'0 0.0
2019-Aug-24 07:00N 53°21' W 006°13'0 0.0
2019-Aug-24 06:30N 53°21' W 006°13'0 0.0
2019-Aug-24 06:00N 53°21' W 006°13'0 0.0
2019-Aug-24 05:30N 53°21' W 006°13'0 0.0
2019-Aug-24 05:00N 53°21' W 006°13'0 0.0
2019-Aug-24 04:30N 53°21' W 006°13'0 0.3
2019-Aug-24 04:00N 53°21' W 006°13'5 9.2
2019-Aug-24 03:30N 53°20' W 006°05'816.5
2019-Aug-24 03:00N 53°23' W 005°52'815.4
2019-Aug-24 02:30N 53°26' W 005°40'815.2
2019-Aug-24 01:59N 53°28' W 005°27'1217.9
2019-Aug-24 01:20N 53°31' W 005°08'617.8
2019-Aug-24 01:00N 53°32' W 004°59'1117.3
2019-Aug-24 00:22N 53°34' W 004°41'617.5
2019-Aug-24 00:00N 53°35' W 004°30'917.9
2019-Aug-23 23:30N 53°34' W 004°15'918.4
2019-Aug-23 23:00N 53°34' W 003°59'918.9
2019-Aug-23 22:30N 53°34' W 003°43'1019.2
2019-Aug-23 22:00N 53°33' W 003°27'918.4
2019-Aug-23 21:30N 53°31' W 003°12'815.9
2019-Aug-23 21:00N 53°27' W 003°01'0 0.4
2019-Aug-23 20:30N 53°27' W 003°01'0 0.9
2019-Aug-23 20:00N 53°27' W 003°01'0 0.0
2019-Aug-23 19:30N 53°27' W 003°01'0 0.0
2019-Aug-23 19:00N 53°27' W 003°01'0 0.0
2019-Aug-23 18:30N 53°27' W 003°01'0 0.0
2019-Aug-23 18:00N 53°27' W 003°01'0 0.0
2019-Aug-23 17:30N 53°27' W 003°01'0 0.0
2019-Aug-23 17:00N 53°27' W 003°01'0 0.0
2019-Aug-23 16:30N 53°27' W 003°01'0 0.0
2019-Aug-23 16:00N 53°27' W 003°01'0 0.1
2019-Aug-23 15:30N 53°27' W 003°01'0 0.7
2019-Aug-23 15:00N 53°27' W 003°01'4 7.5
2019-Aug-23 14:30N 53°30' W 003°06'816.7
2019-Aug-23 14:00N 53°31' W 003°19'1019.4
2019-Aug-23 13:30N 53°31' W 003°36'1019.2
2019-Aug-23 13:00N 53°32' W 003°52'1019.5
2019-Aug-23 12:30N 53°34' W 004°08'1020.3
2019-Aug-23 12:00N 53°37' W 004°25'5519.4
2019-Aug-23 09:09N 53°22' W 005°54'318.9
2019-Aug-23 09:00N 53°21' W 005°59'714.6
2019-Aug-23 08:30N 53°21' W 006°11'1 2.7
2019-Aug-23 08:00N 53°21' W 006°13'0 0.0
2019-Aug-23 07:30N 53°21' W 006°13'0 0.0
2019-Aug-23 07:00N 53°21' W 006°13'0 0.0
2019-Aug-23 06:30N 53°21' W 006°13'0 0.0
2019-Aug-23 06:00N 53°21' W 006°13'0 0.0
2019-Aug-23 05:30N 53°21' W 006°13'0 0.0
2019-Aug-23 05:00N 53°21' W 006°13'0 0.0
2019-Aug-23 04:30N 53°21' W 006°13'1 2.0
2019-Aug-23 04:00N 53°21' W 006°11'713.6
2019-Aug-23 03:30N 53°21' W 006°00'3919.8
2019-Aug-23 01:33N 53°33' W 004°58'118.7
2019-Aug-23 01:30N 53°33' W 004°57'1018.2
2019-Aug-23 00:57N 53°34' W 004°40'818.0
2019-Aug-23 00:30N 53°34' W 004°26'918.5
2019-Aug-23 00:00N 53°34' W 004°11'1018.9
2019-Aug-22 23:30N 53°34' W 003°54'1019.6
2019-Aug-22 23:00N 53°33' W 003°38'1019.9
2019-Aug-22 22:30N 53°32' W 003°22'816.7
2019-Aug-22 22:00N 53°32' W 003°08'612.2
2019-Aug-22 21:30N 53°27' W 003°01'0 0.1
2019-Aug-22 21:00N 53°27' W 003°01'0 0.8
2019-Aug-22 20:30N 53°27' W 003°01'0 0.0
2019-Aug-22 20:00N 53°27' W 003°01'0 0.0
2019-Aug-22 19:30N 53°27' W 003°01'0 0.0
2019-Aug-22 19:00N 53°27' W 003°01'0 0.0
2019-Aug-22 18:30N 53°27' W 003°01'0 0.0
2019-Aug-22 18:00N 53°27' W 003°01'0 0.0
2019-Aug-22 17:30N 53°27' W 003°01'0 0.0
2019-Aug-22 17:00N 53°27' W 003°01'0 0.0
2019-Aug-22 16:30N 53°27' W 003°01'0 0.0
2019-Aug-22 16:00N 53°27' W 003°01'0 0.4
2019-Aug-22 15:31N 53°27' W 003°01'0 0.9
2019-Aug-22 15:00N 53°27' W 003°01'612.6
2019-Aug-22 14:30N 53°32' W 003°08'918.9
2019-Aug-22 14:01N 53°31' W 003°24'917.5
2019-Aug-22 13:31N 53°31' W 003°39'917.6
2019-Aug-22 13:00N 53°32' W 003°53'918.2
2019-Aug-22 12:29N 53°34' W 004°09'918.5
2019-Aug-22 11:59N 53°36' W 004°24'918.4
2019-Aug-22 11:29N 53°36' W 004°40'4917.1
2019-Aug-22 08:36N 53°21' W 005°59'217.9
2019-Aug-22 08:31N 53°21' W 006°01'712.9
2019-Aug-22 08:00N 53°21' W 006°12'1 1.0
2019-Aug-22 07:30N 53°21' W 006°13'0 0.0
2019-Aug-22 07:00N 53°21' W 006°13'0 0.0
2019-Aug-22 06:30N 53°21' W 006°13'0 0.0
2019-Aug-22 06:00N 53°21' W 006°13'0 0.0
2019-Aug-22 05:30N 53°21' W 006°13'0 0.0
2019-Aug-22 05:00N 53°21' W 006°13'0 0.0
2019-Aug-22 04:30N 53°21' W 006°13'0 0.3
2019-Aug-22 04:00N 53°21' W 006°13'4 8.7
2019-Aug-22 03:30N 53°20' W 006°06'4117.6
2019-Aug-22 01:10N 53°32' W 004°59'318.7
2019-Aug-22 01:00N 53°33' W 004°54'918.0
2019-Aug-22 00:30N 53°34' W 004°39'917.3
2019-Aug-22 00:00N 53°34' W 004°25'917.7
2019-Aug-21 23:30N 53°34' W 004°10'918.3
2019-Aug-21 23:00N 53°34' W 003°54'919.1
2019-Aug-21 22:30N 53°33' W 003°39'1019.6
2019-Aug-21 22:00N 53°33' W 003°22'917.3
2019-Aug-21 21:30N 53°32' W 003°08'611.9
2019-Aug-21 21:00N 53°27' W 003°01'0 0.0
2019-Aug-21 20:30N 53°27' W 003°01'0 0.7
2019-Aug-21 19:58N 53°27' W 003°01'0 0.0
2019-Aug-21 19:28N 53°27' W 003°01'0 0.0
2019-Aug-21 18:55N 53°27' W 003°01'0 0.0
2019-Aug-21 18:28N 53°27' W 003°01'0 0.0
2019-Aug-21 17:58N 53°27' W 003°01'0 0.0
2019-Aug-21 17:28N 53°27' W 003°01'0 0.0
2019-Aug-21 16:58N 53°27' W 003°01'0 0.0
2019-Aug-21 16:28N 53°27' W 003°01'0 0.0
2019-Aug-21 15:58N 53°27' W 003°01'0 0.5
2019-Aug-21 15:30N 53°27' W 003°01'0 0.7
2019-Aug-21 15:00N 53°27' W 003°01'4 8.4
2019-Aug-21 14:30N 53°30' W 003°06'917.0
2019-Aug-21 14:01N 53°32' W 003°20'815.9
2019-Aug-21 13:30N 53°31' W 003°33'1019.1
2019-Aug-21 13:00N 53°31' W 003°49'917.9
2019-Aug-21 12:30N 53°32' W 004°04'1119.6
2019-Aug-21 11:55N 53°36' W 004°22'920.8
2019-Aug-21 11:28N 53°37' W 004°38'5019.8
2019-Aug-21 08:57N 53°22' W 005°58'715.7
2019-Aug-21 08:30N 53°21' W 006°10'2 4.1
2019-Aug-21 08:00N 53°21' W 006°13'0 0.0
2019-Aug-21 07:30N 53°21' W 006°13'0 0.0
2019-Aug-21 07:00N 53°21' W 006°13'0 0.0
2019-Aug-21 06:29N 53°21' W 006°13'0 0.0
2019-Aug-21 05:59N 53°21' W 006°13'0 0.0
2019-Aug-21 05:30N 53°21' W 006°13'0 0.0
2019-Aug-21 05:00N 53°21' W 006°13'0 0.7
2019-Aug-21 04:30N 53°21' W 006°13'2 3.7
2019-Aug-21 04:00N 53°21' W 006°09'4617.9
2019-Aug-21 01:26N 53°33' W 004°55'817.6
2019-Aug-21 00:59N 53°34' W 004°42'816.8
2019-Aug-21 00:31N 53°34' W 004°28'816.4
2019-Aug-21 00:00N 53°34' W 004°14'816.6
2019-Aug-20 23:30N 53°34' W 004°01'916.7
2019-Aug-20 22:59N 53°33' W 003°46'816.9
2019-Aug-20 22:30N 53°33' W 003°32'817.0
2019-Aug-20 22:00N 53°32' W 003°18'714.1
2019-Aug-20 21:30N 53°31' W 003°06'510.2
2019-Aug-20 21:01N 53°27' W 003°01'0 0.1
2019-Aug-20 20:31N 53°27' W 003°01'0 0.8
2019-Aug-20 20:01N 53°27' W 003°01'0 0.0
2019-Aug-20 19:30N 53°27' W 003°01'0 0.0
2019-Aug-20 19:00N 53°27' W 003°01'0 0.0
2019-Aug-20 18:30N 53°27' W 003°01'0 0.0
2019-Aug-20 18:00N 53°27' W 003°01'0 0.0
2019-Aug-20 17:30N 53°27' W 003°01'0 0.0
2019-Aug-20 17:00N 53°27' W 003°01'0 0.0
2019-Aug-20 16:30N 53°27' W 003°01'0 0.0
2019-Aug-20 16:00N 53°27' W 003°01'0 0.4
2019-Aug-20 15:30N 53°27' W 003°01'0 0.8
2019-Aug-20 15:00N 53°27' W 003°01'510.1
2019-Aug-20 14:31N 53°31' W 003°07'917.7
2019-Aug-20 14:01N 53°31' W 003°21'918.1
2019-Aug-20 13:31N 53°31' W 003°37'917.3
2019-Aug-20 13:01N 53°32' W 003°51'917.8
2019-Aug-20 12:30N 53°33' W 004°06'918.4
2019-Aug-20 11:59N 53°35' W 004°22'5519.0
2019-Aug-20 09:06N 53°23' W 005°52'219.5
2019-Aug-20 09:00N 53°22' W 005°55'816.9
2019-Aug-20 08:30N 53°21' W 006°09'3 5.0
2019-Aug-20 08:00N 53°21' W 006°13'0 0.0
2019-Aug-20 07:30N 53°21' W 006°13'0 0.0
2019-Aug-20 07:00N 53°21' W 006°13'0 0.0
2019-Aug-20 06:30N 53°21' W 006°13'0 0.0
2019-Aug-20 06:00N 53°21' W 006°13'0 0.0
2019-Aug-20 05:30N 53°21' W 006°13'0 0.0
2019-Aug-20 05:00N 53°21' W 006°13'0 0.0
2019-Aug-20 04:30N 53°21' W 006°13'0 0.2
2019-Aug-20 04:00N 53°21' W 006°13'4 8.0
2019-Aug-20 03:30N 53°20' W 006°06'917.8
2019-Aug-20 03:00N 53°23' W 005°52'3918.8
2019-Aug-20 00:57N 53°33' W 004°49'919.2
2019-Aug-20 00:30N 53°34' W 004°35'918.7
2019-Aug-20 00:00N 53°34' W 004°19'918.7
2019-Aug-19 23:30N 53°34' W 004°03'1018.4
2019-Aug-19 22:57N 53°33' W 003°46'818.5
2019-Aug-19 22:31N 53°33' W 003°33'918.2
2019-Aug-19 22:01N 53°32' W 003°17'714.7
2019-Aug-19 21:30N 53°30' W 003°06'4 7.8
2019-Aug-19 21:00N 53°27' W 003°01'0 0.1
2019-Aug-19 20:30N 53°27' W 003°01'0 0.8
2019-Aug-19 20:01N 53°27' W 003°01'0 0.0
2019-Aug-19 19:31N 53°27' W 003°01'0 0.0
2019-Aug-19 19:01N 53°27' W 003°01'0 0.0
2019-Aug-19 18:31N 53°27' W 003°01'0 0.0
2019-Aug-19 18:00N 53°27' W 003°01'0 0.0
2019-Aug-19 17:30N 53°27' W 003°01'0 0.0
2019-Aug-19 17:01N 53°27' W 003°01'0 0.0
2019-Aug-19 16:30N 53°27' W 003°01'0 0.0
2019-Aug-19 16:00N 53°27' W 003°01'0 0.0
2019-Aug-19 15:30N 53°27' W 003°01'0 0.0
2019-Aug-19 15:00N 53°27' W 003°01'0 0.0
2019-Aug-19 14:30N 53°27' W 003°01'0 0.0
2019-Aug-19 14:00N 53°27' W 003°01'0 0.0
2019-Aug-19 13:30N 53°27' W 003°01'0 0.0
2019-Aug-19 13:01N 53°27' W 003°01'0 0.0
2019-Aug-19 12:30N 53°27' W 003°01'0 0.0
2019-Aug-19 12:01N 53°27' W 003°01'0 0.0
2019-Aug-19 11:30N 53°27' W 003°01'0 0.0
2019-Aug-19 11:01N 53°27' W 003°01'0 0.0
2019-Aug-19 10:30N 53°27' W 003°01'0 0.0
2019-Aug-19 10:01N 53°27' W 003°01'0 0.0
2019-Aug-19 09:30N 53°27' W 003°01'0 0.0
2019-Aug-19 09:01N 53°27' W 003°01'0 0.0
2019-Aug-19 08:30N 53°27' W 003°01'0 0.0
2019-Aug-19 08:00N 53°27' W 003°01'0 0.0
2019-Aug-19 07:30N 53°27' W 003°01'0 0.0
2019-Aug-19 07:01N 53°27' W 003°01'0 0.0
2019-Aug-19 06:31N 53°27' W 003°01'0 0.0
2019-Aug-19 06:00N 53°27' W 003°01'0 0.0
2019-Aug-19 05:30N 53°27' W 003°01'0 0.0
2019-Aug-19 05:00N 53°27' W 003°01'0 0.8
2019-Aug-19 04:31N 53°27' W 003°01'0 0.4
2019-Aug-19 04:01N 53°27' W 003°01'510.6
2019-Aug-19 03:30N 53°31' W 003°07'816.6
2019-Aug-19 03:00N 53°31' W 003°21'714.6
2019-Aug-19 02:30N 53°30' W 003°33'815.1
2019-Aug-19 02:00N 53°31' W 003°46'815.8
2019-Aug-19 01:30N 53°33' W 003°59'815.8
2019-Aug-19 01:00N 53°34' W 004°12'815.9
2019-Aug-19 00:30N 53°36' W 004°25'5415.8
2019-Aug-18 21:06N 53°23' W 005°53'217.3
2019-Aug-18 20:59N 53°22' W 005°56'715.6
2019-Aug-18 20:30N 53°21' W 006°08'3 5.7
2019-Aug-18 20:00N 53°21' W 006°13'0 0.0
2019-Aug-18 19:30N 53°21' W 006°13'0 0.0
2019-Aug-18 19:00N 53°21' W 006°13'0 0.0
2019-Aug-18 18:30N 53°21' W 006°13'0 0.0
2019-Aug-18 18:00N 53°21' W 006°13'0 0.0
2019-Aug-18 17:30N 53°21' W 006°13'0 0.3
2019-Aug-18 17:00N 53°21' W 006°13'0 0.0
2019-Aug-18 16:30N 53°21' W 006°13'0 0.0
2019-Aug-18 16:00N 53°21' W 006°13'0 0.0
2019-Aug-18 15:31N 53°21' W 006°13'0 0.0
2019-Aug-18 15:00N 53°21' W 006°13'0 0.0
2019-Aug-18 14:30N 53°21' W 006°13'0 0.0
2019-Aug-18 14:00N 53°21' W 006°13'0 0.0
2019-Aug-18 13:30N 53°21' W 006°13'0 0.0
2019-Aug-18 13:00N 53°21' W 006°13'0 0.0
2019-Aug-18 12:30N 53°21' W 006°13'0 0.0
2019-Aug-18 12:00N 53°21' W 006°13'0 0.0
2019-Aug-18 11:30N 53°21' W 006°13'0 0.0
2019-Aug-18 11:00N 53°21' W 006°13'0 0.0
2019-Aug-18 10:30N 53°21' W 006°13'0 0.0
2019-Aug-18 10:00N 53°21' W 006°13'0 0.0
2019-Aug-18 09:30N 53°21' W 006°13'0 0.0
2019-Aug-18 09:00N 53°21' W 006°13'0 0.3
2019-Aug-18 08:30N 53°21' W 006°13'0 0.1
2019-Aug-18 08:00N 53°21' W 006°13'0 0.0
2019-Aug-18 07:00N 53°21' W 006°13'0 0.0
2019-Aug-18 06:30N 53°21' W 006°13'0 0.0
2019-Aug-18 06:00N 53°21' W 006°13'0 0.0
2019-Aug-18 05:30N 53°21' W 006°13'0 0.0
2019-Aug-18 05:00N 53°21' W 006°13'1 1.3
2019-Aug-18 04:30N 53°21' W 006°12'613.0
2019-Aug-18 04:00N 53°21' W 006°01'918.3
2019-Aug-18 03:30N 53°24' W 005°47'2616.2
2019-Aug-18 01:53N 53°31' W 005°04'916.0
2019-Aug-18 01:19N 53°34' W 004°50'616.4
2019-Aug-18 00:59N 53°34' W 004°40'918.2
2019-Aug-18 00:30N 53°34' W 004°26'917.9
2019-Aug-18 00:01N 53°34' W 004°11'1017.5
2019-Aug-17 23:27N 53°34' W 003°54'817.1
2019-Aug-17 23:00N 53°34' W 003°42'817.1
2019-Aug-17 22:31N 53°33' W 003°27'816.9
2019-Aug-17 22:00N 53°31' W 003°13'714.4
2019-Aug-17 21:30N 53°28' W 003°03'1 2.6
2019-Aug-17 21:01N 53°27' W 003°01'0 0.9
2019-Aug-17 20:31N 53°27' W 003°01'0 0.0
2019-Aug-17 20:01N 53°27' W 003°01'0 0.0
2019-Aug-17 19:31N 53°27' W 003°01'0 0.0
2019-Aug-17 19:01N 53°27' W 003°01'0 0.0
2019-Aug-17 18:30N 53°27' W 003°01'0 0.0
2019-Aug-17 17:31N 53°27' W 003°01'0 0.0
2019-Aug-17 17:00N 53°27' W 003°01'0 0.0
2019-Aug-17 16:31N 53°27' W 003°01'0 0.0
2019-Aug-17 16:00N 53°27' W 003°01'0 0.8
2019-Aug-17 15:31N 53°27' W 003°01'0 0.3
2019-Aug-17 15:01N 53°27' W 003°01'4 7.8
2019-Aug-17 14:30N 53°30' W 003°06'815.1
2019-Aug-17 14:00N 53°31' W 003°18'816.8
2019-Aug-17 13:30N 53°31' W 003°32'815.6
2019-Aug-17 13:00N 53°32' W 003°45'816.2
2019-Aug-17 12:30N 53°33' W 003°59'816.6
2019-Aug-17 12:00N 53°35' W 004°12'1418.8
2019-Aug-17 11:15N 53°36' W 004°37'4719.5
2019-Aug-17 08:51N 53°23' W 005°52'719.7
2019-Aug-17 08:30N 53°20' W 006°03'611.8
2019-Aug-17 08:00N 53°21' W 006°12'0 0.8
2019-Aug-17 07:30N 53°21' W 006°13'0 0.0
2019-Aug-17 07:00N 53°21' W 006°13'0 0.0
2019-Aug-17 06:30N 53°21' W 006°13'0 0.0
2019-Aug-17 06:00N 53°21' W 006°13'0 0.0
2019-Aug-17 05:30N 53°21' W 006°13'0 0.0
2019-Aug-17 05:00N 53°21' W 006°13'0 0.0
2019-Aug-17 04:30N 53°21' W 006°13'0 0.5
2019-Aug-17 04:00N 53°21' W 006°13'510.0
2019-Aug-17 03:30N 53°20' W 006°04'918.3
2019-Aug-17 03:01N 53°23' W 005°50'3118.2
2019-Aug-17 01:18N 53°32' W 004°60'618.6
2019-Aug-17 00:59N 53°33' W 004°50'918.9
2019-Aug-17 00:30N 53°34' W 004°35'1020.4
2019-Aug-17 00:01N 53°34' W 004°18'1020.0
2019-Aug-16 23:30N 53°34' W 004°01'1019.6
2019-Aug-16 23:01N 53°34' W 003°45'918.1
2019-Aug-16 22:30N 53°33' W 003°30'917.4
2019-Aug-16 22:01N 53°31' W 003°15'714.6
2019-Aug-16 21:31N 53°28' W 003°04'2 4.3
2019-Aug-16 21:00N 53°27' W 003°01'0 0.7
2019-Aug-16 20:31N 53°27' W 003°01'0 0.2
2019-Aug-16 20:01N 53°27' W 003°01'0 0.0
2019-Aug-16 19:30N 53°27' W 003°01'0 0.0
2019-Aug-16 19:00N 53°27' W 003°01'0 0.0
2019-Aug-16 18:30N 53°27' W 003°01'0 0.0
2019-Aug-16 18:00N 53°27' W 003°01'0 0.0
2019-Aug-16 17:31N 53°27' W 003°01'0 0.0
2019-Aug-16 17:00N 53°27' W 003°01'0 0.0
2019-Aug-16 16:31N 53°27' W 003°01'0 0.4
2019-Aug-16 16:01N 53°27' W 003°01'0 0.6
2019-Aug-16 15:30N 53°27' W 003°01'2 4.7
2019-Aug-16 15:00N 53°29' W 003°04'713.8
2019-Aug-16 14:30N 53°31' W 003°15'713.1
2019-Aug-16 14:00N 53°31' W 003°26'816.2
2019-Aug-16 13:30N 53°31' W 003°39'1019.6
2019-Aug-16 13:00N 53°33' W 003°56'1019.8
2019-Aug-16 12:30N 53°34' W 004°12'1020.1
2019-Aug-16 12:00N 53°36' W 004°29'4919.6
2019-Aug-16 09:29N 53°24' W 005°49'919.5
2019-Aug-16 09:00N 53°20' W 006°04'611.1
2019-Aug-16 08:30N 53°21' W 006°13'0 0.2
2019-Aug-16 08:00N 53°21' W 006°13'0 0.0
2019-Aug-16 07:30N 53°21' W 006°13'0 0.0
2019-Aug-16 07:00N 53°21' W 006°13'0 0.0
2019-Aug-16 06:30N 53°21' W 006°13'0 0.0
2019-Aug-16 06:00N 53°21' W 006°13'0 0.0
2019-Aug-16 05:30N 53°21' W 006°13'0 0.0
2019-Aug-16 05:00N 53°21' W 006°13'0 0.0
2019-Aug-16 04:30N 53°21' W 006°13'0 1.0
2019-Aug-16 04:00N 53°21' W 006°12'612.2
2019-Aug-16 03:30N 53°21' W 006°02'1020.3
2019-Aug-16 03:00N 53°24' W 005°46'4221.0
2019-Aug-16 01:02N 53°34' W 004°38'021.6
2019-Aug-16 01:00N 53°34' W 004°37'1121.7
2019-Aug-16 00:30N 53°35' W 004°19'1221.2
2019-Aug-15 23:57N 53°34' W 003°60'920.6
2019-Aug-15 23:30N 53°34' W 003°44'1020.4
2019-Aug-15 23:00N 53°33' W 003°27'918.3
2019-Aug-15 22:30N 53°31' W 003°12'4 8.6
2019-Aug-15 22:00N 53°30' W 003°05'3 5.4
2019-Aug-15 21:30N 53°27' W 003°02'1 1.7
2019-Aug-15 21:01N 53°27' W 003°01'0 0.9
2019-Aug-15 20:31N 53°27' W 003°01'0 0.0
2019-Aug-15 20:00N 53°27' W 003°01'0 0.0
2019-Aug-15 19:31N 53°27' W 003°01'0 0.0
2019-Aug-15 18:59N 53°27' W 003°01'0 0.0
2019-Aug-15 18:29N 53°27' W 003°01'0 0.0
2019-Aug-15 17:59N 53°27' W 003°01'0 0.0
2019-Aug-15 17:29N 53°27' W 003°01'0 0.0
2019-Aug-15 16:59N 53°27' W 003°01'0 0.0
2019-Aug-15 16:29N 53°27' W 003°01'0 0.0
2019-Aug-15 16:00N 53°27' W 003°01'0 0.8
2019-Aug-15 15:30N 53°27' W 003°01'0 0.3
2019-Aug-15 15:00N 53°27' W 003°01'5 9.2
2019-Aug-15 14:30N 53°30' W 003°06'714.3
2019-Aug-15 14:00N 53°31' W 003°18'917.5
2019-Aug-15 13:30N 53°31' W 003°33'917.4
2019-Aug-15 13:00N 53°32' W 003°47'917.9
2019-Aug-15 12:30N 53°33' W 004°02'6718.6
2019-Aug-15 08:53N 53°23' W 005°54'719.2
2019-Aug-15 08:30N 53°20' W 006°05'5 9.6
2019-Aug-15 08:00N 53°21' W 006°13'0 0.0
2019-Aug-15 07:29N 53°21' W 006°13'0 0.0
2019-Aug-15 06:59N 53°21' W 006°13'0 0.0
2019-Aug-15 06:29N 53°21' W 006°13'0 0.0
2019-Aug-15 05:47N 53°21' W 006°13'0 0.0
2019-Aug-15 05:17N 53°21' W 006°13'0 0.0
2019-Aug-15 04:53N 53°21' W 006°13'0 0.0
2019-Aug-15 04:23N 53°21' W 006°13'0 0.3
2019-Aug-15 03:59N 53°21' W 006°13'4 8.6
2019-Aug-15 03:30N 53°20' W 006°06'917.7
2019-Aug-15 03:00N 53°23' W 005°52'4317.4
2019-Aug-15 00:33N 53°34' W 004°42'120.0
2019-Aug-15 00:31N 53°34' W 004°41'1019.8
2019-Aug-15 00:00N 53°35' W 004°24'919.4
2019-Aug-14 23:30N 53°34' W 004°08'918.7
2019-Aug-14 23:00N 53°34' W 003°52'918.3
2019-Aug-14 22:30N 53°33' W 003°37'918.0
2019-Aug-14 22:00N 53°33' W 003°22'917.3
2019-Aug-14 21:31N 53°32' W 003°08'612.1
2019-Aug-14 21:00N 53°27' W 003°01'0 0.5
2019-Aug-14 20:30N 53°27' W 003°01'0 0.5
2019-Aug-14 20:00N 53°27' W 003°01'0 0.0
2019-Aug-14 19:30N 53°27' W 003°01'0 0.0
2019-Aug-14 19:00N 53°27' W 003°01'0 0.0
2019-Aug-14 18:30N 53°27' W 003°01'0 0.0
2019-Aug-14 18:00N 53°27' W 003°01'0 0.0
2019-Aug-14 17:30N 53°27' W 003°01'0 0.0
2019-Aug-14 17:00N 53°27' W 003°01'0 0.0
2019-Aug-14 16:30N 53°27' W 003°01'0 0.0
2019-Aug-14 16:00N 53°27' W 003°01'0 0.8
2019-Aug-14 15:30N 53°27' W 003°01'0 0.4
2019-Aug-14 15:00N 53°27' W 003°01'611.7
2019-Aug-14 14:30N 53°31' W 003°07'816.7
2019-Aug-14 14:00N 53°31' W 003°21'714.1
2019-Aug-14 13:31N 53°31' W 003°33'1019.4
2019-Aug-14 13:00N 53°32' W 003°50'1019.3
2019-Aug-14 12:31N 53°33' W 004°06'1017.6
2019-Aug-14 11:56N 53°35' W 004°22'817.5
2019-Aug-14 11:30N 53°36' W 004°35'4618.6
2019-Aug-14 09:02N 53°23' W 005°49'119.0
2019-Aug-14 08:59N 53°23' W 005°51'918.8
2019-Aug-14 08:30N 53°20' W 006°05'  

Dump ship's entire track history